Mardan Weather



Mardan's Current Weather

Temprature 25o haze

haze

Rain: 0 %

Min Temprature25o
Max Temprature25o
Humidity50
Wind Speed3.1 m/h
Sun Rise06:18:44
Sun Set17:35:03
Current Time: 18-Oct-2019 16:44:39
Lat/Lon: 34.19, 72.05




Mardan's Geo Location



Mardan's Weather Forecast

Time Overall Temp Min Temp Max Temp Humidity Wind Speed Rain
18-Oct-2019 (Fri)
17:00:00 overcast clouds 22.310 22.310 22.712 54 1.5 m/h 0 %
20:00:00 broken clouds 19.890 19.890 20.193 52 1.09 m/h 0 %
23:00:00 scattered clouds 19.360 19.360 19.559 40 2.91 m/h 0 %
19-Oct-2019 (Sat)
02:00:00 scattered clouds 18.010 18.010 18.108 39 2.73 m/h 0 %
05:00:00 broken clouds 17.498 17.498 17.498 37 2.45 m/h 0 %
08:00:00 overcast clouds 19.592 19.592 19.592 40 1.98 m/h 0 %
11:00:00 broken clouds 25.380 25.380 25.380 26 1.41 m/h 0 %
14:00:00 clear sky 26.803 26.803 26.803 28 2.26 m/h 0 %
17:00:00 few clouds 23.504 23.504 23.504 44 1 m/h 0 %
20:00:00 scattered clouds 20.551 20.551 20.551 44 1.59 m/h 0 %
23:00:00 few clouds 19.544 19.544 19.544 38 2.35 m/h 0 %
20-Oct-2019 (Sun)
02:00:00 clear sky 18.327 18.327 18.327 36 2.91 m/h 0 %
05:00:00 clear sky 17.538 17.538 17.538 34 2.99 m/h 0 %
08:00:00 clear sky 20.144 20.144 20.144 37 2.4 m/h 0 %
11:00:00 clear sky 25.930 25.930 25.930 24 1.47 m/h 0 %
14:00:00 clear sky 26.913 26.913 26.913 27 2.25 m/h 0 %
17:00:00 scattered clouds 23.341 23.341 23.341 40 0.64 m/h 0 %
20:00:00 overcast clouds 21.033 21.033 21.033 38 1.9 m/h 0 %
23:00:00 overcast clouds 19.969 19.969 19.969 38 2.6 m/h 0 %
21-Oct-2019 (Mon)
02:00:00 clear sky 18.686 18.686 18.686 35 2.89 m/h 0 %
05:00:00 clear sky 17.917 17.917 17.917 33 2.76 m/h 0 %
08:00:00 clear sky 20.472 20.472 20.472 37 2.22 m/h 0 %
11:00:00 clear sky 25.775 25.775 25.775 26 2.16 m/h 0 %
14:00:00 clear sky 26.878 26.878 26.878 28 2.34 m/h 0 %
17:00:00 clear sky 23.494 23.494 23.494 40 0.54 m/h 0 %
20:00:00 clear sky 20.743 20.743 20.743 40 2.23 m/h 0 %
23:00:00 clear sky 19.794 19.794 19.794 41 2.88 m/h 0 %
22-Oct-2019 (Tue)
02:00:00 clear sky 18.612 18.612 18.612 39 2.95 m/h 0 %
05:00:00 clear sky 17.866 17.866 17.866 38 2.92 m/h 0 %
08:00:00 clear sky 20.351 20.351 20.351 39 2.64 m/h 0 %
11:00:00 clear sky 26.595 26.595 26.595 26 1.15 m/h 0 %
14:00:00 scattered clouds 27.279 27.279 27.279 28 2.48 m/h 0 %
17:00:00 broken clouds 23.509 23.509 23.509 42 0.86 m/h 0 %
20:00:00 overcast clouds 22.050 22.050 22.050 40 1.84 m/h 0 %
23:00:00 overcast clouds 21.742 21.742 21.742 38 1.82 m/h 0 %
23-Oct-2019 (Wed)
02:00:00 overcast clouds 20.665 20.665 20.665 37 1.32 m/h 0 %
05:00:00 overcast clouds 20.508 20.508 20.508 34 1.9 m/h 0 %
08:00:00 overcast clouds 20.953 20.953 20.953 43 2.1 m/h 0 %
11:00:00 light rain 25.614 25.614 25.614 28 2.68 m/h 31 %
14:00:00 overcast clouds 27.861 27.861 27.861 23 0.99 m/h 0 %

Famous Cities (61)